Time;durP1;ratioP1;P1;durP2;ratioP2;P2;SDS_P1;SDS_P2;PMS_P1;PMS_P2;Temp;Humidity;BMP_temperature;BMP_pressure;BME280_temperature;BME280_humidity;BME280_pressure;Samples;Min_cycle;Max_cycle;Signal;HPM_P1;HPM_P2
2023/03/12 00:00:10;;;;;;;6.43;2.90;;;0.50;64.80;;;3.92;43.12;97216.72;5034835;28;20493;-44
2023/03/12 00:02:37;;;;;;;5.30;2.70;;;0.50;65.00;;;3.90;42.82;97216.84;5034545;28;20041;-42
2023/03/12 00:05:06;;;;;;;4.60;2.90;;;0.50;64.80;;;3.92;43.08;97222.00;5034746;28;20071;-46
2023/03/12 00:07:35;;;;;;;8.50;3.37;;;0.50;64.90;;;3.92;42.81;97217.53;5033661;28;20049;-43
2023/03/12 00:10:04;;;;;;;3.83;2.50;;;0.50;64.70;;;3.94;43.22;97225.31;5034663;28;20049;-43
2023/03/12 00:12:32;;;;;;;5.77;2.90;;;0.50;64.50;;;3.94;42.68;97222.69;5034541;28;20061;-45
2023/03/12 00:15:00;;;;;;;4.43;2.80;;;0.50;64.50;;;3.94;43.11;97226.16;5033213;28;20061;-44
2023/03/12 00:17:29;;;;;;;6.30;3.10;;;0.50;64.30;;;3.94;42.90;97231.41;5033220;28;20440;-45
2023/03/12 00:19:56;;;;;;;8.07;3.10;;;0.50;64.30;;;3.92;43.38;97224.63;5026734;28;20053;-42
2023/03/12 00:22:25;;;;;;;6.10;2.60;;;0.50;64.60;;;3.93;42.83;97213.09;5033112;28;20041;-43
2023/03/12 00:24:55;;;;;;;5.00;2.97;;;0.50;64.10;;;3.92;42.74;97222.00;5032370;28;20045;-42
2023/03/12 00:27:25;;;;;;;4.97;3.57;;;0.50;64.00;;;3.91;42.46;97229.03;5033003;28;20054;-41
2023/03/12 00:29:52;;;;;;;4.47;2.73;;;0.50;64.00;;;3.90;42.95;97227.38;5033878;28;20421;-44
2023/03/12 00:32:20;;;;;;;6.77;3.97;;;0.50;63.90;;;3.90;42.77;97221.28;5033004;28;20057;-44
2023/03/12 00:34:54;;;;;;;6.77;4.17;;;0.40;64.10;;;3.91;43.03;97215.03;5034240;28;20041;-42
2023/03/12 00:37:22;;;;;;;7.73;3.97;;;0.50;63.90;;;3.87;42.97;97211.81;5049311;28;20056;-42
2023/03/12 00:39:49;;;;;;;4.70;3.27;;;0.40;63.90;;;3.87;43.27;97211.00;5033642;28;20056;-45
2023/03/12 00:42:17;;;;;;;5.10;3.30;;;0.40;64.30;;;3.88;42.85;97207.41;5032845;28;20085;-42
2023/03/12 00:44:45;;;;;;;5.63;2.97;;;0.40;64.30;;;3.86;43.26;97207.53;5032141;28;20049;-42
2023/03/12 00:47:13;;;;;;;6.13;2.90;;;0.40;64.40;;;3.85;42.83;97211.13;5032257;28;20101;-47
2023/03/12 00:49:41;;;;;;;4.27;2.80;;;0.50;64.70;;;3.86;43.16;97218.06;5032419;28;20052;-42
2023/03/12 00:52:08;;;;;;;3.13;2.37;;;0.40;63.80;;;3.87;42.88;97209.19;5034112;28;20046;-48
2023/03/12 00:54:36;;;;;;;5.20;2.80;;;0.40;63.60;;;3.85;43.16;97211.13;5033448;28;20041;-47
2023/03/12 00:57:05;;;;;;;5.37;2.33;;;0.40;63.90;;;3.84;42.82;97212.09;5032358;28;20061;-46
2023/03/12 00:59:39;;;;;;;6.53;2.13;;;0.40;64.00;;;3.86;43.14;97206.72;5031976;28;20045;-46
2023/03/12 01:02:07;;;;;;;5.00;2.07;;;0.40;63.80;;;3.85;43.28;97207.66;5032892;28;20052;-46
2023/03/12 01:04:35;;;;;;;2.57;2.13;;;0.40;64.10;;;3.81;42.79;97203.63;5031737;28;20413;-44
2023/03/12 01:07:02;;;;;;;4.73;2.97;;;0.30;63.60;;;3.78;43.31;97210.00;5031743;28;20060;-46
2023/03/12 01:09:30;;;;;;;5.10;2.33;;;0.30;63.60;;;3.82;43.28;97214.03;5033191;28;20048;-50
2023/03/12 01:11:58;;;;;;;3.93;2.63;;;0.40;63.30;;;3.78;42.79;97202.09;5024051;28;20048;-46
2023/03/12 01:14:25;;;;;;;6.13;2.40;;;0.30;63.30;;;3.79;43.01;97206.38;5031472;28;20042;-43
2023/03/12 01:16:53;;;;;;;4.23;2.63;;;0.30;63.30;;;3.81;43.38;97206.25;5032921;28;20405;-46
2023/03/12 01:19:21;;;;;;;4.03;2.50;;;0.30;63.40;;;3.87;43.12;97205.72;5033312;28;20049;-48
2023/03/12 01:21:49;;;;;;;7.23;2.53;;;0.30;63.50;;;3.89;43.04;97204.63;5032574;28;20041;-44
2023/03/12 01:24:16;;;;;;;3.67;3.17;;;0.40;63.50;;;3.94;43.31;97205.09;5029545;28;20041;-45
2023/03/12 01:26:44;;;;;;;5.37;2.80;;;0.50;64.10;;;4.00;42.92;97203.72;5031531;28;20512;-44
2023/03/12 01:29:11;;;;;;;10.10;2.93;;;0.50;63.30;;;4.05;42.93;97198.91;5033332;28;20046;-44
2023/03/12 01:31:39;;;;;;;5.50;2.30;;;0.60;63.20;;;4.10;42.91;97203.78;5032878;28;20493;-44
2023/03/12 01:34:10;;;;;;;5.40;2.40;;;0.60;63.10;;;4.16;43.24;97203.25;5033108;28;20042;-45
2023/03/12 01:36:40;;;;;;;6.33;2.87;;;0.70;63.00;;;4.23;43.30;97204.41;5031216;28;20057;-44
2023/03/12 01:39:07;;;;;;;3.63;2.30;;;0.80;62.90;;;4.27;42.58;97204.97;5031789;28;20061;-45
2023/03/12 01:41:35;;;;;;;6.20;2.60;;;0.80;63.00;;;4.31;43.49;97209.00;5032653;28;20112;-46
2023/03/12 01:44:04;;;;;;;5.43;2.77;;;0.80;62.80;;;4.37;42.69;97203.19;5032179;28;20049;-47
2023/03/12 01:46:37;;;;;;;4.70;3.20;;;0.90;62.90;;;4.44;42.84;97206.97;5031426;28;20478;-47
2023/03/12 01:49:26;;;;;;;7.30;3.33;;;1.00;62.80;;;4.46;43.16;97206.81;5023534;28;20053;-47
2023/03/12 01:52:09;;;;;;;4.70;2.87;;;1.00;62.60;;;4.48;42.92;97207.53;5016017;28;20064;-48
2023/03/12 01:54:49;;;;;;;4.63;2.57;;;1.00;62.90;;;4.56;43.05;97210.34;5015702;28;20406;-45
2023/03/12 01:57:31;;;;;;;8.37;3.50;;;1.10;62.90;;;4.60;43.02;97209.09;5015341;28;20054;-47
2023/03/12 02:00:08;;;;;;;5.93;3.27;;;1.20;63.10;;;4.65;42.97;97206.91;5015813;28;20524;-44
2023/03/12 02:02:43;;;;;;;6.93;3.00;;;1.20;63.00;;;4.67;43.07;97202.31;5031188;28;20409;-49
2023/03/12 02:06:02;;;;;;;5.37;4.13;;;1.30;62.60;;;4.57;42.83;97203.25;5015629;28;20056;-43
2023/03/12 02:08:30;;;;;;;8.23;4.20;;;1.10;63.30;;;4.57;42.33;97208.53;5030334;28;20264;-43
2023/03/12 02:10:57;;;;;;;8.30;4.70;;;1.00;63.80;;;4.44;43.14;97206.13;5030654;28;20046;-41
2023/03/12 02:13:25;;;;;;;7.03;3.53;;;0.80;64.90;;;4.40;43.45;97207.34;5030511;28;20045;-43
2023/03/12 02:15:53;;;;;;;6.20;3.87;;;0.80;64.80;;;4.33;43.57;97199.97;5014723;28;20052;-45
2023/03/12 02:18:21;;;;;;;7.17;3.70;;;0.70;65.20;;;4.30;42.98;97196.78;5014169;28;20056;-41
2023/03/12 02:21:19;;;;;;;7.37;4.27;;;0.70;65.70;;;4.27;42.82;97191.78;5031401;28;20056;-41
2023/03/12 02:24:13;;;;;;;7.87;3.70;;;0.70;65.70;;;4.22;43.55;97193.97;5032429;28;20048;-43
2023/03/12 02:26:41;;;;;;;;;;;0.70;66.40;;;4.16;43.74;97190.06;5030938;28;20049;-43
2023/03/12 02:29:10;;;;;;;7.30;3.63;;;0.70;67.10;;;4.24;43.36;97184.97;5014426;28;19921;-43
2023/03/12 02:31:50;;;;;;;5.83;3.70;;;0.60;66.00;;;4.23;43.82;97190.38;5013954;28;20056;-41
2023/03/12 02:34:18;;;;;;;7.87;3.73;;;0.70;66.10;;;4.26;43.53;97188.28;5030979;28;20049;-42
2023/03/12 02:36:47;;;;;;;6.27;3.90;;;0.70;65.70;;;4.26;43.39;97182.19;5031516;28;20037;-44
2023/03/12 02:39:15;;;;;;;5.80;3.87;;;0.70;65.80;;;4.26;43.45;97187.47;5030409;28;20041;-43
2023/03/12 02:42:01;;;;;;;6.83;4.40;;;0.70;65.40;;;4.21;43.60;97190.50;5030564;28;20042;-43
2023/03/12 02:44:32;;;;;;;7.67;4.13;;;0.80;65.80;;;4.26;43.83;97196.19;5013869;28;20041;-41
2023/03/12 02:47:01;;;;;;;7.77;4.10;;;0.70;65.90;;;4.20;43.31;97180.94;5030293;28;20041;-44
2023/03/12 02:49:32;;;;;;;10.10;4.50;;;0.70;66.00;;;4.20;43.36;97188.00;5030374;28;20512;-41
2023/03/12 02:52:01;;;;;;;5.87;3.60;;;0.60;66.00;;;4.13;43.95;97185.91;5030169;28;20041;-43
2023/03/12 02:54:29;;;;;;;6.73;3.70;;;0.60;66.50;;;4.12;44.25;97191.31;5013926;28;20418;-43
2023/03/12 02:56:57;;;;;;;5.93;4.20;;;0.60;66.50;;;4.10;43.61;97191.44;5029160;28;20449;-42
2023/03/12 02:59:26;;;;;;;6.77;4.00;;;0.60;66.70;;;4.11;43.83;97190.47;5030263;28;20516;-42
2023/03/12 03:01:59;;;;;;;5.87;3.53;;;0.60;66.70;;;4.12;43.68;97184.22;5029690;28;20045;-41
2023/03/12 03:04:29;;;;;;;7.10;3.50;;;0.60;66.70;;;4.15;44.06;97185.78;5014134;28;20044;-42
2023/03/12 03:06:57;;;;;;;6.93;4.40;;;0.60;66.60;;;4.16;44.32;97173.44;5029808;28;20042;-42
2023/03/12 03:09:25;;;;;;;8.63;4.13;;;0.70;66.60;;;4.22;44.02;97173.72;5030136;28;20049;-44
2023/03/12 03:11:52;;;;;;;4.90;3.33;;;0.70;66.50;;;4.28;43.57;97170.56;5013283;28;20416;-42
2023/03/12 03:14:22;;;;;;;5.23;3.30;;;0.80;67.00;;;4.33;44.50;97167.53;5029700;28;20045;-42
2023/03/12 03:16:50;;;;;;;5.97;3.33;;;0.80;65.90;;;4.39;43.63;97166.16;5030691;28;20705;-42
2023/03/12 03:19:22;;;;;;;6.07;3.30;;;0.90;65.30;;;4.46;44.11;97154.94;5029848;28;20050;-44
2023/03/12 03:21:50;;;;;;;9.33;3.80;;;1.00;65.10;;;4.53;44.31;97158.69;5031198;28;20424;-42
2023/03/12 03:24:18;;;;;;;7.23;3.80;;;1.10;65.00;;;4.61;43.49;97162.47;5012577;28;20041;-41
2023/03/12 03:26:45;;;;;;;6.93;3.80;;;1.20;64.70;;;4.68;43.24;97164.44;5029881;28;20041;-43
2023/03/12 03:29:13;;;;;;;9.63;3.30;;;1.20;64.50;;;4.73;43.20;97166.66;5030060;28;20417;-45
2023/03/12 03:31:41;;;;;;;7.30;3.13;;;1.20;64.50;;;4.76;44.22;97174.28;5030000;28;20041;-42
2023/03/12 03:34:08;;;;;;;5.50;2.97;;;1.30;64.80;;;4.79;43.83;97168.75;5030425;28;20056;-44
2023/03/12 03:36:36;;;;;;;4.20;3.07;;;1.30;64.80;;;4.80;44.18;97175.69;5029398;28;20501;-42
2023/03/12 03:39:09;;;;;;;5.23;3.07;;;1.30;64.90;;;4.83;43.25;97175.44;5029613;28;20049;-42
2023/03/12 03:41:36;;;;;;;5.40;3.50;;;1.30;65.20;;;4.86;43.64;97174.31;5031144;28;20477;-42
2023/03/12 03:44:06;;;;;;;6.27;3.43;;;1.30;65.10;;;4.89;43.21;97169.59;5029482;28;20041;-42
2023/03/12 03:46:35;;;;;;;4.90;3.47;;;1.30;65.10;;;4.95;43.58;97175.31;5029178;28;20064;-43
2023/03/12 03:49:06;;;;;;;4.97;3.47;;;1.40;65.30;;;4.99;43.71;97169.59;5030423;28;20041;-42
2023/03/12 03:51:35;;;;;;;7.17;3.77;;;1.40;64.80;;;5.02;43.72;97165.84;5029848;28;20049;-44
2023/03/12 03:54:08;;;;;;;6.30;3.17;;;1.40;64.80;;;5.06;43.35;97157.53;5029689;28;20045;-42
2023/03/12 03:56:36;;;;;;;5.93;3.30;;;1.50;64.70;;;5.10;43.27;97140.44;5030436;28;20056;-42
2023/03/12 03:59:05;;;;;;;4.83;2.67;;;1.60;64.40;;;5.11;43.87;97142.09;5029845;28;20420;-43
2023/03/12 04:01:35;;;;;;;8.70;3.37;;;1.60;64.30;;;5.16;43.76;97143.50;5030077;28;20060;-42
2023/03/12 04:04:04;;;;;;;5.90;3.50;;;1.70;64.70;;;5.20;43.79;97144.91;5029040;28;20517;-43
2023/03/12 04:06:33;;;;;;;5.43;3.17;;;1.70;64.70;;;5.20;43.57;97145.72;5012801;28;20417;-42
2023/03/12 04:09:01;;;;;;;7.93;3.57;;;1.60;64.80;;;5.22;43.13;97161.44;5033295;28;20056;-43
2023/03/12 04:11:30;;;;;;;6.03;3.30;;;1.60;65.10;;;5.23;43.14;97168.34;5033294;28;20378;-43
2023/03/12 04:13:58;;;;;;;7.90;4.57;;;1.70;65.10;;;5.26;43.46;97160.16;5033057;28;20049;-42
2023/03/12 04:16:30;;;;;;;9.03;4.00;;;1.70;65.10;;;5.29;43.50;97162.50;5032964;28;20421;-42
2023/03/12 04:18:58;;;;;;;8.63;4.00;;;1.70;64.90;;;5.29;43.73;97154.59;5016629;28;20057;-46
2023/03/12 04:21:26;;;;;;;5.97;3.77;;;1.70;65.00;;;5.30;43.76;97159.75;5034505;28;20049;-42
2023/03/12 04:23:54;;;;;;;7.33;4.13;;;1.70;64.90;;;5.33;43.26;97163.91;5030554;28;20046;-43
2023/03/12 04:26:26;;;;;;;6.23;3.97;;;1.80;64.40;;;5.38;43.95;97164.31;5032445;28;20587;-43
2023/03/12 04:28:56;;;;;;;8.67;3.70;;;1.80;64.40;;;5.40;43.72;97164.19;5032935;28;20532;-41
2023/03/12 04:31:24;;;;;;;5.97;3.30;;;1.90;64.60;;;5.43;43.92;97162.09;5033197;28;20041;-42
2023/03/12 04:33:51;;;;;;;5.10;3.73;;;1.90;64.60;;;5.46;43.44;97161.81;5032997;28;20041;-42
2023/03/12 04:36:22;;;;;;;5.50;3.20;;;1.90;64.80;;;5.49;43.64;97158.91;5032559;28;20048;-41
2023/03/12 04:38:51;;;;;;;6.20;4.00;;;2.00;64.90;;;5.50;44.18;97172.91;5032275;28;20100;-42
2023/03/12 04:41:23;;;;;;;7.83;5.67;;;2.00;65.60;;;5.50;43.58;97170.28;5016720;28;20048;-43
2023/03/12 04:43:57;;;;;;;5.50;3.63;;;2.00;66.20;;;5.51;44.09;97164.03;5033124;28;20050;-42
2023/03/12 04:46:25;;;;;;;8.00;4.27;;;2.00;66.80;;;5.51;44.41;97156.94;5015964;28;20041;-43
2023/03/12 04:48:52;;;;;;;5.57;3.70;;;1.90;67.00;;;5.51;44.10;97164.88;5033659;28;20048;-42
2023/03/12 04:51:20;;;;;;;5.87;3.60;;;1.90;67.00;;;5.54;44.26;97163.75;5033503;28;20141;-44
2023/03/12 04:53:48;;;;;;;6.97;3.77;;;2.00;67.10;;;5.52;44.08;97155.97;5032095;28;20109;-42
2023/03/12 04:56:15;;;;;;;4.77;3.23;;;1.90;67.60;;;5.50;44.44;97160.53;5016121;28;20056;-42
2023/03/12 04:58:45;;;;;;;5.03;2.97;;;1.80;67.00;;;5.48;43.99;97167.78;5031873;28;20045;-43
2023/03/12 05:01:20;;;;;;;7.33;3.03;;;1.80;66.20;;;5.48;44.37;97156.38;5032365;28;20519;-42
2023/03/12 05:03:47;;;;;;;6.87;4.00;;;1.90;66.10;;;5.47;44.37;97160.03;5033560;28;20049;-46
2023/03/12 05:06:15;;;;;;;5.60;3.30;;;1.80;66.10;;;5.45;44.33;97151.41;5032312;28;20046;-43
2023/03/12 05:08:43;;;;;;;6.77;3.70;;;1.80;66.50;;;5.42;44.63;97149.84;5032118;28;20045;-43
2023/03/12 05:11:11;;;;;;;7.57;3.60;;;1.70;66.80;;;5.44;44.23;97160.28;5024561;28;20049;-42
2023/03/12 05:13:39;;;;;;;7.97;3.70;;;1.70;66.80;;;5.45;44.46;97154.06;5032373;28;20071;-42
2023/03/12 05:16:09;;;;;;;5.63;3.53;;;1.80;66.90;;;5.46;43.74;97153.88;5032880;28;20497;-44
2023/03/12 05:18:37;;;;;;;6.80;3.67;;;1.80;67.00;;;5.43;44.71;97151.53;5014616;28;20049;-42
2023/03/12 05:21:13;;;;;;;3.83;3.03;;;1.70;67.50;;;5.44;44.04;97141.81;5015519;28;20061;-43
2023/03/12 05:23:42;;;;;;;5.53;3.90;;;1.80;67.80;;;5.51;43.71;97150.84;5033286;28;20531;-43
2023/03/12 05:26:37;;;;;;;4.97;3.17;;;1.90;67.50;;;5.52;44.39;97153.34;5031621;28;20046;-42
2023/03/12 05:29:17;;;;;;;10.77;4.83;;;2.00;67.30;;;5.62;44.26;97155.09;5024549;28;20050;-44
2023/03/12 05:31:45;;;;;;;9.90;5.20;;;2.00;67.50;;;5.61;44.51;97164.03;5031201;28;20043;-42
2023/03/12 05:34:13;;;;;;;12.27;5.23;;;2.10;67.90;;;5.64;44.85;97172.50;5023758;28;20049;-42
2023/03/12 05:36:43;;;;;;;7.63;4.40;;;2.10;68.80;;;5.62;44.55;97163.88;5031366;28;20441;-43
2023/03/12 05:39:13;;;;;;;8.70;5.10;;;2.10;69.10;;;5.65;44.38;97165.41;5015818;28;20041;-42
2023/03/12 05:41:42;;;;;;;6.43;4.70;;;2.10;69.60;;;5.66;44.72;97167.91;5030910;28;20052;-45
2023/03/12 05:44:14;;;;;;;7.77;4.63;;;2.10;70.40;;;5.63;45.13;97170.81;5031770;28;20045;-43
2023/03/12 05:46:44;;;;;;;6.43;5.20;;;2.00;71.10;;;5.64;45.11;97166.38;5030937;28;20048;-44
2023/03/12 05:49:12;;;;;;;8.47;4.63;;;2.00;71.80;;;5.66;45.53;97165.28;5031116;28;20045;-45
2023/03/12 05:51:40;;;;;;;7.10;5.40;;;2.10;72.10;;;5.67;46.17;97171.38;5032551;28;20519;-42
2023/03/12 05:54:09;;;;;;;8.30;5.27;;;2.10;72.60;;;5.67;45.33;97166.09;5031719;28;20049;-46
2023/03/12 05:56:37;;;;;;;8.13;5.47;;;2.10;72.50;;;5.67;45.29;97166.09;5031048;28;20045;-42
2023/03/12 05:59:05;;;;;;;9.00;5.33;;;2.10;73.00;;;5.66;45.18;97159.97;5031219;28;20045;-43
2023/03/12 06:01:33;;;;;;;9.93;5.60;;;2.10;73.20;;;5.67;45.59;97159.00;5032951;28;20041;-43
2023/03/12 06:04:03;;;;;;;7.97;5.23;;;2.10;73.00;;;5.70;46.01;97155.25;5031314;28;20053;-43
2023/03/12 06:06:33;;;;;;;8.80;5.27;;;2.10;73.00;;;5.71;46.64;97162.19;5030274;28;20041;-43
2023/03/12 06:09:03;;;;;;;9.83;5.13;;;2.10;73.50;;;5.71;46.05;97157.72;5030441;28;20396;-43
2023/03/12 06:11:33;;;;;;;6.80;5.13;;;2.10;73.70;;;5.75;46.00;97153.00;5030864;28;20052;-44
2023/03/12 06:14:01;;;;;;;6.67;4.70;;;2.10;73.70;;;5.79;46.21;97149.09;5031373;28;20049;-44
2023/03/12 06:16:29;;;;;;;5.43;3.43;;;2.20;74.30;;;5.82;46.18;97154.09;5030943;28;20041;-47
2023/03/12 06:19:00;;;;;;;6.87;3.53;;;2.20;75.50;;;5.84;46.97;97146.88;5030065;28;20049;-44
2023/03/12 06:21:32;;;;;;;6.20;3.57;;;2.20;75.70;;;5.87;47.05;97151.88;5031179;28;20433;-42
2023/03/12 06:24:01;;;;;;;8.30;3.67;;;2.30;75.70;;;5.89;47.31;97147.28;5030895;28;20049;-43
2023/03/12 06:26:36;;;;;;;6.50;3.90;;;2.30;75.60;;;5.94;46.23;97141.53;5014911;28;20060;-44
2023/03/12 06:29:04;;;;;;;5.63;3.73;;;2.40;75.70;;;6.00;46.40;97138.34;5031713;28;20044;-43
2023/03/12 06:31:31;;;;;;;5.47;4.13;;;2.40;75.70;;;6.08;46.48;97133.16;5031706;28;20045;-42
2023/03/12 06:33:59;;;;;;;5.63;3.73;;;2.60;75.80;;;6.11;46.73;97130.25;5031760;28;20493;-43
2023/03/12 06:36:26;;;;;;;6.53;4.13;;;2.70;75.70;;;6.14;47.13;97133.56;5031723;28;20045;-42
2023/03/12 06:38:54;;;;;;;9.77;4.47;;;2.70;75.60;;;6.21;46.55;97126.72;5031583;28;20049;-41
2023/03/12 06:41:23;;;;;;;5.30;3.90;;;2.80;75.50;;;6.25;47.17;97128.94;5031655;28;20041;-42
2023/03/12 06:43:51;;;;;;;6.73;3.70;;;2.90;75.60;;;6.29;46.70;97127.66;5031220;28;20056;-43
2023/03/12 06:46:20;;;;;;;6.30;3.97;;;2.90;75.30;;;6.33;46.72;97130.00;5031223;28;20045;-44
2023/03/12 06:48:48;;;;;;;5.53;4.17;;;2.90;75.50;;;6.39;46.72;97140.00;5031441;28;20041;-45
2023/03/12 06:51:16;;;;;;;6.63;3.77;;;2.90;75.70;;;6.42;47.18;97137.91;5031461;28;20048;-41
2023/03/12 06:53:44;;;;;;;6.40;3.70;;;3.00;75.90;;;6.45;47.23;97134.13;5030489;28;20042;-41
2023/03/12 06:56:12;;;;;;;8.17;4.40;;;3.00;75.90;;;6.44;47.16;97138.56;5029963;28;20393;-42
2023/03/12 06:58:40;;;;;;;5.60;3.87;;;3.00;76.00;;;6.49;47.67;97132.84;5031396;28;20042;-44
2023/03/12 07:01:08;;;;;;;6.30;3.97;;;3.10;76.10;;;6.53;47.26;97136.84;5031120;28;20053;-43
2023/03/12 07:03:36;;;;;;;7.83;4.83;;;3.10;76.60;;;6.55;47.58;97128.75;5030183;28;20524;-42
2023/03/12 07:06:04;;;;;;;5.70;3.67;;;3.10;76.80;;;6.55;47.53;97140.16;5031454;28;20041;-46
2023/03/12 07:08:32;;;;;;;7.23;4.37;;;3.20;76.90;;;6.58;47.27;97139.88;5031173;28;20524;-42
2023/03/12 07:10:59;;;;;;;6.37;4.03;;;3.20;77.10;;;6.64;47.14;97144.56;5031057;28;20049;-43
2023/03/12 07:13:29;;;;;;;5.57;3.87;;;3.20;77.40;;;6.66;47.24;97145.25;5031105;28;20041;-43
2023/03/12 07:15:57;;;;;;;6.93;4.57;;;3.20;77.70;;;6.69;47.90;97142.31;5031015;28;20409;-49
2023/03/12 07:18:25;;;;;;;6.40;4.00;;;3.20;77.80;;;6.74;47.64;97148.97;5030400;28;20413;-44
2023/03/12 07:20:53;;;;;;;7.90;4.07;;;3.20;77.90;;;6.75;47.88;97146.19;5030006;28;20056;-43
2023/03/12 07:23:21;;;;;;;6.47;3.67;;;3.20;78.30;;;6.77;48.01;97148.69;5029715;28;20056;-44
2023/03/12 07:25:49;;;;;;;10.40;5.27;;;3.20;78.90;;;6.77;47.46;97154.81;5027617;28;20405;-43
2023/03/12 07:28:17;;;;;;;6.37;4.50;;;3.20;79.30;;;6.81;47.86;97150.06;5030754;28;20041;-43
2023/03/12 07:30:51;;;;;;;5.57;4.20;;;3.20;79.70;;;6.83;47.85;97151.56;5031355;28;20042;-47
2023/03/12 07:33:20;;;;;;;6.40;4.35;;;3.30;79.70;;;6.86;48.29;97145.13;5019259;28;20046;-44
2023/03/12 07:35:48;;;;;;;6.37;4.67;;;3.30;80.00;;;6.89;47.78;97155.44;5030390;28;20048;-43
2023/03/12 07:38:18;;;;;;;7.20;4.60;;;3.30;80.00;;;6.92;47.82;97146.34;5029402;28;20060;-44
2023/03/12 07:40:54;;;;;;;6.87;4.43;;;3.40;79.90;;;6.95;47.69;97148.69;5029707;28;20046;-43
2023/03/12 07:43:23;;;;;;;8.60;4.27;;;3.50;79.70;;;7.03;48.26;97146.13;5033311;28;20424;-43
2023/03/12 07:45:54;;;;;;;6.53;3.87;;;3.50;79.60;;;7.10;48.10;97152.50;5031664;28;20046;-45
2023/03/12 07:48:21;;;;;;;5.40;4.20;;;3.60;79.20;;;7.13;47.65;97154.00;5025694;28;20045;-44
2023/03/12 07:50:49;;;;;;;9.87;5.37;;;3.60;79.10;;;7.17;47.98;97161.47;5032622;28;20052;-46
2023/03/12 07:53:17;;;;;;;15.00;5.43;;;3.70;79.20;;;7.22;48.05;97156.56;5033528;28;20052;-44
2023/03/12 07:55:46;;;;;;;7.60;4.67;;;3.80;79.00;;;7.24;48.19;97157.25;5032314;28;20049;-46
2023/03/12 07:58:15;;;;;;;8.67;5.73;;;3.80;78.70;;;7.27;47.82;97154.31;5031222;28;20064;-42
2023/03/12 08:00:43;;;;;;;7.30;4.50;;;3.90;78.80;;;7.33;47.96;97158.16;5033883;28;20052;-45
2023/03/12 08:03:12;;;;;;;7.90;4.10;;;3.90;78.50;;;7.37;47.75;97159.50;5033463;28;20049;-45
2023/03/12 08:05:40;;;;;;;6.50;3.93;;;4.00;78.40;;;7.40;47.96;97159.19;5033707;28;20053;-43
2023/03/12 08:08:08;;;;;;;16.57;9.57;;;4.00;78.30;;;7.44;48.07;97165.00;5033046;28;20049;-43
2023/03/12 08:10:36;;;;;;;13.50;10.23;;;4.00;78.30;;;7.48;47.88;97163.72;5015310;28;20042;-45
2023/03/12 08:13:04;;;;;;;9.03;6.10;;;4.10;78.70;;;7.52;48.21;97174.84;5033220;28;20045;-47
2023/03/12 08:15:32;;;;;;;8.10;5.83;;;4.10;79.50;;;7.54;48.03;97167.56;5033506;28;20044;-46
2023/03/12 08:18:00;;;;;;;9.90;5.47;;;4.10;79.70;;;7.51;48.23;97175.84;5032781;28;20068;-46
2023/03/12 08:20:27;;;;;;;10.30;6.80;;;4.00;80.30;;;7.50;48.67;97180.28;5033376;28;20042;-47
2023/03/12 08:22:55;;;;;;;14.77;9.43;;;4.00;80.90;;;7.48;48.56;97172.53;5033181;28;20052;-47
2023/03/12 08:25:23;;;;;;;15.63;11.23;;;4.10;81.10;;;7.48;48.63;97175.16;5025025;28;20030;-48
2023/03/12 08:27:51;;;;;;;16.27;9.37;;;4.00;81.30;;;7.49;49.00;97176.00;5032912;28;20041;-44
2023/03/12 08:30:19;;;;;;;14.93;9.30;;;4.00;82.50;;;7.52;48.92;97178.31;5033247;28;20038;-45
2023/03/12 08:32:47;;;;;;;10.37;7.80;;;4.00;84.00;;;7.56;48.94;97178.84;5033048;28;20041;-45
2023/03/12 08:35:14;;;;;;;10.40;6.57;;;4.00;85.00;;;7.61;49.57;97181.88;5033011;28;20048;-45
2023/03/12 08:37:42;;;;;;;11.47;8.33;;;4.00;85.90;;;7.64;49.48;97187.72;5032414;28;20041;-46
2023/03/12 08:40:11;;;;;;;11.10;8.70;;;4.10;87.10;;;7.67;49.49;97168.84;5032957;28;20416;-45
2023/03/12 08:42:43;;;;;;;11.43;8.27;;;4.10;87.90;;;7.72;49.63;97179.00;5031886;28;20049;-46
2023/03/12 08:45:13;;;;;;;10.27;7.10;;;4.20;89.50;;;7.82;49.82;97174.41;5031515;28;20563;-45
2023/03/12 08:47:42;;;;;;;8.20;7.27;;;4.30;90.60;;;7.89;50.06;97183.41;5032539;28;20037;-46
2023/03/12 08:50:12;;;;;;;12.87;8.53;;;4.40;91.60;;;7.95;49.87;97167.84;5032806;28;20053;-45
2023/03/12 08:52:40;;;;;;;12.90;9.10;;;4.40;92.70;;;7.99;49.99;97164.75;5032162;28;20042;-45
2023/03/12 08:55:09;;;;;;;9.70;7.10;;;4.50;93.30;;;8.08;50.28;97162.97;5032023;28;20049;-47
2023/03/12 08:57:37;;;;;;;9.23;6.87;;;4.60;93.90;;;8.09;50.49;97164.66;5027585;28;20034;-49
2023/03/12 09:00:10;;;;;;;9.70;6.70;;;4.70;94.40;;;8.15;50.78;97163.19;5029890;28;20048;-48
2023/03/12 09:02:37;;;;;;;11.15;7.95;;;4.70;94.10;;;8.10;50.58;97161.00;5030804;28;20045;-48
2023/03/12 09:05:07;;;;;;;11.17;7.30;;;4.80;95.00;;;8.13;50.97;97167.81;5038924;28;20053;-42
2023/03/12 09:07:36;;;;;;;10.70;6.70;;;4.80;95.20;;;8.23;50.97;97169.34;5036293;28;20041;-48
2023/03/12 09:10:05;;;;;;;10.07;6.93;;;4.90;95.60;;;8.34;51.25;97167.44;5032387;28;20049;-46
2023/03/12 09:12:33;;;;;;;9.80;6.20;;;5.00;96.20;;;8.44;51.16;97166.34;5030959;28;20038;-48
2023/03/12 09:15:00;;;;;;;10.87;6.03;;;5.00;96.70;;;8.51;50.95;97171.00;5032377;28;20050;-48
2023/03/12 09:17:31;;;;;;;9.03;6.00;;;5.10;97.70;;;8.57;51.01;97171.19;5030508;28;20501;-45
2023/03/12 09:19:59;;;;;;;9.23;6.60;;;5.20;98.60;;;8.62;51.00;97168.88;5032229;28;20050;-47
2023/03/12 09:22:29;;;;;;;11.40;6.97;;;5.20;98.70;;;8.68;51.17;97172.72;5031911;28;20049;-47
2023/03/12 09:24:57;;;;;;;10.10;5.73;;;5.30;99.90;;;8.74;51.23;97182.69;5032324;28;20053;-45
2023/03/12 09:27:24;;;;;;;12.30;6.83;;;5.30;99.90;;;8.81;51.22;97188.19;5031748;28;20037;-47
2023/03/12 09:29:53;;;;;;;9.83;6.37;;;5.40;99.90;;;8.89;51.27;97188.22;5029969;28;20402;-50
2023/03/12 09:32:28;;;;;;;9.83;6.47;;;5.50;99.90;;;8.98;51.19;97189.91;5031882;28;20033;-46
2023/03/12 09:34:55;;;;;;;13.20;7.07;;;5.60;99.90;;;9.05;51.28;97187.41;5032809;28;20045;-50
2023/03/12 09:37:23;;;;;;;9.40;7.10;;;5.60;99.90;;;9.13;51.45;97195.44;5031461;28;20353;-45
2023/03/12 09:39:52;;;;;;;10.80;7.30;;;5.70;99.90;;;9.20;51.57;97193.75;5032774;28;20048;-45
2023/03/12 09:42:47;;;;;;;12.50;7.70;;;5.90;99.90;;;9.27;51.54;97194.78;5032619;28;20053;-46
2023/03/12 09:45:27;;;;;;;9.47;6.50;;;5.90;99.90;;;9.35;51.69;97190.47;5031764;28;20056;-48
2023/03/12 09:47:59;;;;;;;9.57;6.97;;;6.00;99.90;;;9.42;52.11;97192.31;5031182;28;20042;-45
2023/03/12 09:50:32;;;;;;;15.17;10.10;;;6.10;99.90;;;9.48;51.65;97193.47;5031650;28;20048;-47
2023/03/12 09:53:40;;;;;;;13.70;9.27;;;6.10;99.90;;;9.52;51.58;97188.63;5032392;28;20045;-47
2023/03/12 09:56:15;;;;;;;10.70;7.67;;;6.10;99.90;;;9.63;51.85;97185.66;5028455;28;20057;-48
2023/03/12 09:58:48;;;;;;;8.43;6.80;;;6.20;99.90;;;9.69;52.05;97192.13;5031373;28;20422;-47
2023/03/12 10:01:46;;;;;;;8.57;6.70;;;6.20;99.90;;;9.68;52.81;97199.28;5030841;28;20053;-46
2023/03/12 10:04:34;;;;;;;9.50;5.63;;;6.30;99.90;;;9.78;52.09;97194.63;5030844;28;20050;-46
2023/03/12 10:07:34;;;;;;;7.93;4.63;;;6.40;99.90;;;9.86;52.32;97204.44;5030875;28;20050;-45
2023/03/12 10:10:25;;;;;;;10.53;5.57;;;6.50;99.90;;;9.89;52.37;97193.47;5030980;28;20041;-46
2023/03/12 10:13:27;;;;;;;7.80;5.00;;;6.60;99.90;;;9.98;52.46;97203.09;5017053;28;20041;-46
2023/03/12 10:16:34;;;;;;;7.13;4.90;;;6.60;99.90;;;10.09;52.26;97207.22;5026632;28;20053;-47
2023/03/12 10:19:37;;;;;;;9.10;5.10;;;6.70;99.90;;;10.12;52.49;97209.56;5039966;28;20056;-49
2023/03/12 10:22:19;;;;;;;7.33;5.00;;;6.80;99.90;;;10.20;52.90;97208.72;5026027;28;20037;-49
2023/03/12 10:25:18;;;;;;;6.77;4.63;;;6.90;99.90;;;10.15;52.90;97211.03;5025804;28;20045;-46
2023/03/12 10:27:47;;;;;;;8.10;5.70;;;6.90;99.90;;;10.22;53.59;97223.50;5024767;28;20034;-50
2023/03/12 10:30:23;;;;;;;5.80;4.03;;;6.90;99.90;;;10.21;53.50;97223.66;5040184;28;20040;-47
2023/03/12 10:33:08;;;;;;;5.67;4.50;;;6.90;99.90;;;10.13;54.32;97229.00;5039276;28;20045;-46
2023/03/12 10:35:39;;;;;;;5.47;3.47;;;6.90;99.90;;;10.13;54.50;97229.81;5041051;28;20037;-49
2023/03/12 10:38:27;;;;;;;7.50;3.53;;;7.00;99.90;;;9.96;56.29;97231.66;5038874;28;20045;-47
2023/03/12 10:40:55;;;;;;;6.67;3.97;;;7.00;99.90;;;10.07;55.93;97229.69;5024075;28;20064;-48
2023/03/12 10:43:24;;;;;;;6.33;4.70;;;7.00;99.90;;;9.92;56.85;97240.97;5026116;28;20059;-46
2023/03/12 10:46:13;;;;;;;5.70;3.83;;;7.00;99.90;;;10.07;56.85;97241.13;5025869;28;20064;-50
2023/03/12 10:48:42;;;;;;;5.13;2.73;;;7.00;99.90;;;10.06;57.80;97228.81;5039631;28;20045;-50